Terminal Aerodrome Forecast
Issued by NWS

Home | Current Version | Previous Version | Text Only | Print | Product List | Glossary On
Versions: 1 2 3 4 5 6 7 8 9 10 11 12 13 14 15 16
000
FTUS42 TJSJ 230500
TAFNCM
TAF
TNCM 230527Z 2306/2406 07007KT P6SM FEW020
     FM231500 12010KT P6SM SCT022
     FM232300 08006KT P6SM FEW020=

USA.gov is the U.S. government's official web portal to all federal, state and local government web resources and services.